sensor_id;sensor_type;location;lat;lon;timestamp;P1;durP1;ratioP1;P2;durP2;ratioP2
11346;SDS011;5728;42.722;23.258;2023-11-25T00:01:07;12.03;;;3.73;;
11346;SDS011;5728;42.722;23.258;2023-11-25T00:03:34;7.63;;;2.20;;
11346;SDS011;5728;42.722;23.258;2023-11-25T00:06:01;10.50;;;2.93;;
11346;SDS011;5728;42.722;23.258;2023-11-25T00:08:28;4.40;;;2.03;;
11346;SDS011;5728;42.722;23.258;2023-11-25T00:10:55;6.07;;;2.90;;
11346;SDS011;5728;42.722;23.258;2023-11-25T00:13:22;4.17;;;2.40;;
11346;SDS011;5728;42.722;23.258;2023-11-25T00:15:52;3.50;;;1.90;;
11346;SDS011;5728;42.722;23.258;2023-11-25T00:18:20;4.83;;;1.90;;
11346;SDS011;5728;42.722;23.258;2023-11-25T00:20:48;4.07;;;1.80;;
11346;SDS011;5728;42.722;23.258;2023-11-25T00:23:17;4.63;;;2.53;;
11346;SDS011;5728;42.722;23.258;2023-11-25T00:25:44;10.47;;;2.63;;
11346;SDS011;5728;42.722;23.258;2023-11-25T00:28:12;5.67;;;2.13;;
11346;SDS011;5728;42.722;23.258;2023-11-25T00:30:39;6.23;;;3.30;;
11346;SDS011;5728;42.722;23.258;2023-11-25T00:33:07;2.03;;;1.83;;
11346;SDS011;5728;42.722;23.258;2023-11-25T00:35:34;4.50;;;1.93;;
11346;SDS011;5728;42.722;23.258;2023-11-25T00:38:01;3.27;;;2.07;;
11346;SDS011;5728;42.722;23.258;2023-11-25T00:40:33;7.63;;;2.73;;
11346;SDS011;5728;42.722;23.258;2023-11-25T00:43:01;4.87;;;2.30;;
11346;SDS011;5728;42.722;23.258;2023-11-25T00:45:28;4.37;;;2.43;;
11346;SDS011;5728;42.722;23.258;2023-11-25T00:47:54;3.87;;;2.27;;
11346;SDS011;5728;42.722;23.258;2023-11-25T00:50:25;5.53;;;2.80;;
11346;SDS011;5728;42.722;23.258;2023-11-25T00:52:52;6.37;;;2.63;;
11346;SDS011;5728;42.722;23.258;2023-11-25T00:55:20;5.60;;;1.80;;
11346;SDS011;5728;42.722;23.258;2023-11-25T00:57:47;8.20;;;2.90;;
11346;SDS011;5728;42.722;23.258;2023-11-25T01:00:15;2.53;;;2.33;;
11346;SDS011;5728;42.722;23.258;2023-11-25T01:02:48;3.50;;;2.20;;
11346;SDS011;5728;42.722;23.258;2023-11-25T01:05:15;2.03;;;1.33;;
11346;SDS011;5728;42.722;23.258;2023-11-25T01:07:45;8.27;;;2.50;;
11346;SDS011;5728;42.722;23.258;2023-11-25T01:10:13;5.53;;;2.73;;
11346;SDS011;5728;42.722;23.258;2023-11-25T01:12:40;5.17;;;1.93;;
11346;SDS011;5728;42.722;23.258;2023-11-25T01:15:08;4.63;;;2.63;;
11346;SDS011;5728;42.722;23.258;2023-11-25T01:17:38;3.90;;;2.50;;
11346;SDS011;5728;42.722;23.258;2023-11-25T01:20:05;4.60;;;2.60;;
11346;SDS011;5728;42.722;23.258;2023-11-25T01:22:35;3.63;;;2.30;;
11346;SDS011;5728;42.722;23.258;2023-11-25T01:25:03;5.63;;;2.50;;
11346;SDS011;5728;42.722;23.258;2023-11-25T01:27:31;3.47;;;2.30;;
11346;SDS011;5728;42.722;23.258;2023-11-25T01:30:00;5.80;;;3.03;;
11346;SDS011;5728;42.722;23.258;2023-11-25T01:32:29;1.43;;;1.03;;
11346;SDS011;5728;42.722;23.258;2023-11-25T01:34:56;3.73;;;2.37;;
11346;SDS011;5728;42.722;23.258;2023-11-25T01:37:23;5.53;;;2.47;;
11346;SDS011;5728;42.722;23.258;2023-11-25T01:39:51;3.73;;;1.97;;
11346;SDS011;5728;42.722;23.258;2023-11-25T01:42:20;3.20;;;2.13;;
11346;SDS011;5728;42.722;23.258;2023-11-25T01:44:47;6.80;;;2.30;;
11346;SDS011;5728;42.722;23.258;2023-11-25T01:47:14;6.57;;;2.73;;
11346;SDS011;5728;42.722;23.258;2023-11-25T01:49:43;5.03;;;2.93;;
11346;SDS011;5728;42.722;23.258;2023-11-25T01:52:10;2.20;;;2.00;;
11346;SDS011;5728;42.722;23.258;2023-11-25T01:54:37;3.00;;;2.70;;
11346;SDS011;5728;42.722;23.258;2023-11-25T01:57:04;2.83;;;1.80;;
11346;SDS011;5728;42.722;23.258;2023-11-25T01:59:35;3.73;;;1.60;;
11346;SDS011;5728;42.722;23.258;2023-11-25T02:02:02;1.50;;;1.40;;
11346;SDS011;5728;42.722;23.258;2023-11-25T02:04:31;1.97;;;1.50;;
11346;SDS011;5728;42.722;23.258;2023-11-25T02:06:58;2.03;;;1.40;;
11346;SDS011;5728;42.722;23.258;2023-11-25T02:09:26;0.90;;;0.90;;
11346;SDS011;5728;42.722;23.258;2023-11-25T02:11:53;1.47;;;1.30;;
11346;SDS011;5728;42.722;23.258;2023-11-25T02:14:24;1.30;;;1.20;;
11346;SDS011;5728;42.722;23.258;2023-11-25T02:16:53;1.00;;;1.00;;
11346;SDS011;5728;42.722;23.258;2023-11-25T02:19:21;2.63;;;1.30;;
11346;SDS011;5728;42.722;23.258;2023-11-25T02:21:50;1.30;;;1.20;;
11346;SDS011;5728;42.722;23.258;2023-11-25T02:24:18;4.97;;;1.20;;
11346;SDS011;5728;42.722;23.258;2023-11-25T02:26:47;3.13;;;1.30;;
11346;SDS011;5728;42.722;23.258;2023-11-25T02:29:14;1.93;;;1.43;;
11346;SDS011;5728;42.722;23.258;2023-11-25T02:31:41;1.40;;;1.30;;
11346;SDS011;5728;42.722;23.258;2023-11-25T02:34:08;1.40;;;1.30;;
11346;SDS011;5728;42.722;23.258;2023-11-25T02:36:35;1.20;;;1.10;;
11346;SDS011;5728;42.722;23.258;2023-11-25T02:39:03;1.87;;;1.30;;
11346;SDS011;5728;42.722;23.258;2023-11-25T02:41:31;1.37;;;1.27;;
11346;SDS011;5728;42.722;23.258;2023-11-25T02:43:59;1.77;;;1.20;;
11346;SDS011;5728;42.722;23.258;2023-11-25T02:46:26;1.93;;;1.30;;
11346;SDS011;5728;42.722;23.258;2023-11-25T02:48:54;1.10;;;1.10;;
11346;SDS011;5728;42.722;23.258;2023-11-25T02:51:20;1.20;;;1.10;;
11346;SDS011;5728;42.722;23.258;2023-11-25T02:53:48;1.20;;;1.13;;
11346;SDS011;5728;42.722;23.258;2023-11-25T02:56:16;1.17;;;1.10;;
11346;SDS011;5728;42.722;23.258;2023-11-25T02:58:44;3.47;;;1.27;;
11346;SDS011;5728;42.722;23.258;2023-11-25T03:01:11;1.90;;;1.23;;
11346;SDS011;5728;42.722;23.258;2023-11-25T03:03:39;1.10;;;1.00;;
11346;SDS011;5728;42.722;23.258;2023-11-25T03:06:12;5.50;;;1.40;;
11346;SDS011;5728;42.722;23.258;2023-11-25T03:08:40;1.10;;;1.00;;
11346;SDS011;5728;42.722;23.258;2023-11-25T03:11:07;1.53;;;1.40;;
11346;SDS011;5728;42.722;23.258;2023-11-25T03:13:37;2.27;;;1.40;;
11346;SDS011;5728;42.722;23.258;2023-11-25T03:16:06;1.97;;;1.33;;
11346;SDS011;5728;42.722;23.258;2023-11-25T03:18:35;1.47;;;1.37;;
11346;SDS011;5728;42.722;23.258;2023-11-25T03:21:03;1.60;;;1.23;;
11346;SDS011;5728;42.722;23.258;2023-11-25T03:23:30;1.37;;;1.27;;
11346;SDS011;5728;42.722;23.258;2023-11-25T03:25:57;1.50;;;1.10;;
11346;SDS011;5728;42.722;23.258;2023-11-25T03:28:24;4.23;;;1.30;;
11346;SDS011;5728;42.722;23.258;2023-11-25T03:30:51;1.40;;;1.30;;
11346;SDS011;5728;42.722;23.258;2023-11-25T03:33:20;1.77;;;0.90;;
11346;SDS011;5728;42.722;23.258;2023-11-25T03:35:47;1.30;;;1.20;;
11346;SDS011;5728;42.722;23.258;2023-11-25T03:38:14;1.93;;;1.50;;
11346;SDS011;5728;42.722;23.258;2023-11-25T03:40:41;1.53;;;1.27;;
11346;SDS011;5728;42.722;23.258;2023-11-25T03:43:08;5.53;;;1.83;;
11346;SDS011;5728;42.722;23.258;2023-11-25T03:45:35;1.30;;;1.20;;
11346;SDS011;5728;42.722;23.258;2023-11-25T03:48:02;1.50;;;1.40;;
11346;SDS011;5728;42.722;23.258;2023-11-25T03:50:32;1.20;;;1.10;;
11346;SDS011;5728;42.722;23.258;2023-11-25T03:52:59;1.30;;;1.20;;
11346;SDS011;5728;42.722;23.258;2023-11-25T03:55:26;1.10;;;1.00;;
11346;SDS011;5728;42.722;23.258;2023-11-25T03:57:53;2.30;;;1.50;;
11346;SDS011;5728;42.722;23.258;2023-11-25T04:00:20;1.30;;;1.20;;
11346;SDS011;5728;42.722;23.258;2023-11-25T04:02:48;1.20;;;1.10;;
11346;SDS011;5728;42.722;23.258;2023-11-25T04:05:16;1.63;;;1.10;;
11346;SDS011;5728;42.722;23.258;2023-11-25T04:07:45;2.33;;;1.20;;
11346;SDS011;5728;42.722;23.258;2023-11-25T04:10:12;1.30;;;1.20;;
11346;SDS011;5728;42.722;23.258;2023-11-25T04:12:40;1.70;;;1.60;;
11346;SDS011;5728;42.722;23.258;2023-11-25T04:15:08;1.17;;;1.07;;
11346;SDS011;5728;42.722;23.258;2023-11-25T04:17:36;1.20;;;1.10;;
11346;SDS011;5728;42.722;23.258;2023-11-25T04:20:04;1.30;;;1.20;;
11346;SDS011;5728;42.722;23.258;2023-11-25T04:22:39;0.90;;;0.90;;
11346;SDS011;5728;42.722;23.258;2023-11-25T04:25:10;1.20;;;1.10;;
11346;SDS011;5728;42.722;23.258;2023-11-25T04:27:39;1.00;;;1.00;;
11346;SDS011;5728;42.722;23.258;2023-11-25T04:30:07;2.97;;;1.13;;
11346;SDS011;5728;42.722;23.258;2023-11-25T04:32:35;1.30;;;1.20;;
11346;SDS011;5728;42.722;23.258;2023-11-25T04:35:02;1.40;;;1.00;;
11346;SDS011;5728;42.722;23.258;2023-11-25T04:37:30;1.00;;;1.00;;
11346;SDS011;5728;42.722;23.258;2023-11-25T04:39:57;1.57;;;1.20;;
11346;SDS011;5728;42.722;23.258;2023-11-25T04:42:32;1.83;;;1.27;;
11346;SDS011;5728;42.722;23.258;2023-11-25T04:44:59;1.37;;;1.27;;
11346;SDS011;5728;42.722;23.258;2023-11-25T04:47:26;3.03;;;1.30;;
11346;SDS011;5728;42.722;23.258;2023-11-25T04:49:53;1.43;;;1.20;;
11346;SDS011;5728;42.722;23.258;2023-11-25T04:52:20;1.20;;;1.10;;
11346;SDS011;5728;42.722;23.258;2023-11-25T04:54:47;2.43;;;1.00;;
11346;SDS011;5728;42.722;23.258;2023-11-25T04:57:14;1.10;;;1.00;;
11346;SDS011;5728;42.722;23.258;2023-11-25T04:59:43;1.10;;;1.00;;
11346;SDS011;5728;42.722;23.258;2023-11-25T05:02:10;3.20;;;1.20;;
11346;SDS011;5728;42.722;23.258;2023-11-25T05:04:37;1.37;;;1.27;;
11346;SDS011;5728;42.722;23.258;2023-11-25T05:07:04;0.90;;;0.90;;
11346;SDS011;5728;42.722;23.258;2023-11-25T05:09:31;1.30;;;1.20;;
11346;SDS011;5728;42.722;23.258;2023-11-25T05:11:58;0.97;;;0.97;;
11346;SDS011;5728;42.722;23.258;2023-11-25T05:14:25;0.90;;;0.90;;
11346;SDS011;5728;42.722;23.258;2023-11-25T05:16:53;1.20;;;1.03;;
11346;SDS011;5728;42.722;23.258;2023-11-25T05:19:22;1.43;;;1.10;;
11346;SDS011;5728;42.722;23.258;2023-11-25T05:21:49;1.00;;;1.00;;
11346;SDS011;5728;42.722;23.258;2023-11-25T05:24:16;1.10;;;1.10;;
11346;SDS011;5728;42.722;23.258;2023-11-25T05:26:43;1.33;;;1.20;;
11346;SDS011;5728;42.722;23.258;2023-11-25T05:29:10;0.90;;;0.90;;
11346;SDS011;5728;42.722;23.258;2023-11-25T05:31:37;0.93;;;0.90;;
11346;SDS011;5728;42.722;23.258;2023-11-25T05:34:05;2.40;;;1.00;;
11346;SDS011;5728;42.722;23.258;2023-11-25T05:36:32;2.27;;;1.00;;
11346;SDS011;5728;42.722;23.258;2023-11-25T05:38:59;0.80;;;0.80;;
11346;SDS011;5728;42.722;23.258;2023-11-25T05:41:26;1.70;;;1.17;;
11346;SDS011;5728;42.722;23.258;2023-11-25T05:43:54;0.90;;;0.90;;
11346;SDS011;5728;42.722;23.258;2023-11-25T05:46:22;1.20;;;1.10;;
11346;SDS011;5728;42.722;23.258;2023-11-25T05:48:51;1.23;;;1.03;;
11346;SDS011;5728;42.722;23.258;2023-11-25T05:51:20;1.10;;;1.00;;
11346;SDS011;5728;42.722;23.258;2023-11-25T05:53:48;0.80;;;0.80;;
11346;SDS011;5728;42.722;23.258;2023-11-25T05:56:15;1.17;;;1.10;;
11346;SDS011;5728;42.722;23.258;2023-11-25T05:58:45;1.20;;;1.10;;
11346;SDS011;5728;42.722;23.258;2023-11-25T06:01:12;1.23;;;1.13;;
11346;SDS011;5728;42.722;23.258;2023-11-25T06:03:39;1.03;;;1.00;;
11346;SDS011;5728;42.722;23.258;2023-11-25T06:06:08;1.30;;;1.20;;
11346;SDS011;5728;42.722;23.258;2023-11-25T06:08:37;1.60;;;1.30;;
11346;SDS011;5728;42.722;23.258;2023-11-25T06:11:04;1.10;;;1.10;;
11346;SDS011;5728;42.722;23.258;2023-11-25T06:13:31;1.00;;;1.00;;
11346;SDS011;5728;42.722;23.258;2023-11-25T06:15:58;0.90;;;0.90;;
11346;SDS011;5728;42.722;23.258;2023-11-25T06:18:25;1.47;;;1.20;;
11346;SDS011;5728;42.722;23.258;2023-11-25T06:20:52;1.20;;;1.10;;
11346;SDS011;5728;42.722;23.258;2023-11-25T06:23:19;1.20;;;1.10;;
11346;SDS011;5728;42.722;23.258;2023-11-25T06:25:47;1.50;;;1.40;;
11346;SDS011;5728;42.722;23.258;2023-11-25T06:28:16;1.00;;;1.00;;
11346;SDS011;5728;42.722;23.258;2023-11-25T06:30:46;2.10;;;1.40;;
11346;SDS011;5728;42.722;23.258;2023-11-25T06:33:19;1.60;;;1.37;;
11346;SDS011;5728;42.722;23.258;2023-11-25T06:35:46;1.40;;;1.30;;
11346;SDS011;5728;42.722;23.258;2023-11-25T06:38:13;2.47;;;1.63;;
11346;SDS011;5728;42.722;23.258;2023-11-25T06:40:40;2.93;;;2.03;;
11346;SDS011;5728;42.722;23.258;2023-11-25T06:43:08;1.70;;;1.60;;
11346;SDS011;5728;42.722;23.258;2023-11-25T06:45:35;1.60;;;1.50;;
11346;SDS011;5728;42.722;23.258;2023-11-25T06:48:05;1.40;;;1.30;;
11346;SDS011;5728;42.722;23.258;2023-11-25T06:50:32;1.73;;;1.50;;
11346;SDS011;5728;42.722;23.258;2023-11-25T06:53:00;1.37;;;1.20;;
11346;SDS011;5728;42.722;23.258;2023-11-25T06:55:28;1.40;;;1.30;;
11346;SDS011;5728;42.722;23.258;2023-11-25T06:57:56;1.50;;;1.40;;
11346;SDS011;5728;42.722;23.258;2023-11-25T07:00:24;2.03;;;1.80;;
11346;SDS011;5728;42.722;23.258;2023-11-25T07:02:51;2.57;;;2.20;;
11346;SDS011;5728;42.722;23.258;2023-11-25T07:05:19;2.17;;;1.90;;
11346;SDS011;5728;42.722;23.258;2023-11-25T07:07:46;2.60;;;1.80;;
11346;SDS011;5728;42.722;23.258;2023-11-25T07:10:13;5.63;;;2.57;;
11346;SDS011;5728;42.722;23.258;2023-11-25T07:12:40;3.53;;;2.67;;
11346;SDS011;5728;42.722;23.258;2023-11-25T07:15:07;2.27;;;1.97;;
11346;SDS011;5728;42.722;23.258;2023-11-25T07:17:36;2.87;;;2.37;;
11346;SDS011;5728;42.722;23.258;2023-11-25T07:20:04;5.63;;;2.43;;
11346;SDS011;5728;42.722;23.258;2023-11-25T07:22:37;5.83;;;2.10;;
11346;SDS011;5728;42.722;23.258;2023-11-25T07:25:04;2.10;;;1.90;;
11346;SDS011;5728;42.722;23.258;2023-11-25T07:27:36;4.80;;;2.43;;
11346;SDS011;5728;42.722;23.258;2023-11-25T07:30:04;2.60;;;2.00;;
11346;SDS011;5728;42.722;23.258;2023-11-25T07:32:31;3.20;;;2.53;;
11346;SDS011;5728;42.722;23.258;2023-11-25T07:35:00;2.23;;;1.60;;
11346;SDS011;5728;42.722;23.258;2023-11-25T07:37:31;2.60;;;2.30;;
11346;SDS011;5728;42.722;23.258;2023-11-25T07:39:58;3.10;;;2.60;;
11346;SDS011;5728;42.722;23.258;2023-11-25T07:42:25;5.57;;;3.70;;
11346;SDS011;5728;42.722;23.258;2023-11-25T07:44:52;4.43;;;3.33;;
11346;SDS011;5728;42.722;23.258;2023-11-25T07:47:20;6.13;;;3.27;;
11346;SDS011;5728;42.722;23.258;2023-11-25T07:49:47;7.27;;;3.07;;
11346;SDS011;5728;42.722;23.258;2023-11-25T07:52:16;3.83;;;2.80;;
11346;SDS011;5728;42.722;23.258;2023-11-25T07:54:43;3.53;;;2.63;;
11346;SDS011;5728;42.722;23.258;2023-11-25T07:57:10;2.80;;;2.27;;
11346;SDS011;5728;42.722;23.258;2023-11-25T07:59:37;3.30;;;2.63;;
11346;SDS011;5728;42.722;23.258;2023-11-25T08:02:05;2.53;;;2.17;;
11346;SDS011;5728;42.722;23.258;2023-11-25T08:04:33;3.93;;;2.30;;
11346;SDS011;5728;42.722;23.258;2023-11-25T08:07:00;3.97;;;2.00;;
11346;SDS011;5728;42.722;23.258;2023-11-25T08:09:29;2.97;;;2.23;;
11346;SDS011;5728;42.722;23.258;2023-11-25T08:11:58;2.13;;;1.73;;
11346;SDS011;5728;42.722;23.258;2023-11-25T08:14:24;4.13;;;2.10;;
11346;SDS011;5728;42.722;23.258;2023-11-25T08:16:51;2.77;;;1.53;;
11346;SDS011;5728;42.722;23.258;2023-11-25T08:19:19;2.20;;;2.00;;
11346;SDS011;5728;42.722;23.258;2023-11-25T08:21:46;2.70;;;2.10;;
11346;SDS011;5728;42.722;23.258;2023-11-25T08:24:13;1.67;;;1.57;;
11346;SDS011;5728;42.722;23.258;2023-11-25T08:26:44;3.30;;;1.53;;
11346;SDS011;5728;42.722;23.258;2023-11-25T08:29:11;3.60;;;1.83;;
11346;SDS011;5728;42.722;23.258;2023-11-25T08:31:39;2.07;;;1.80;;
11346;SDS011;5728;42.722;23.258;2023-11-25T08:34:06;2.57;;;2.37;;
11346;SDS011;5728;42.722;23.258;2023-11-25T08:36:34;1.60;;;1.30;;
11346;SDS011;5728;42.722;23.258;2023-11-25T08:39:09;1.93;;;1.57;;
11346;SDS011;5728;42.722;23.258;2023-11-25T08:41:38;4.17;;;2.03;;
11346;SDS011;5728;42.722;23.258;2023-11-25T08:44:08;1.40;;;1.30;;
11346;SDS011;5728;42.722;23.258;2023-11-25T08:46:37;1.30;;;1.20;;
11346;SDS011;5728;42.722;23.258;2023-11-25T08:49:05;1.60;;;1.30;;
11346;SDS011;5728;42.722;23.258;2023-11-25T08:51:32;2.07;;;1.40;;
11346;SDS011;5728;42.722;23.258;2023-11-25T08:53:59;1.80;;;1.53;;
11346;SDS011;5728;42.722;23.258;2023-11-25T08:56:27;1.50;;;1.40;;
11346;SDS011;5728;42.722;23.258;2023-11-25T08:58:56;2.33;;;1.43;;
11346;SDS011;5728;42.722;23.258;2023-11-25T09:01:27;1.90;;;1.47;;
11346;SDS011;5728;42.722;23.258;2023-11-25T09:03:57;1.67;;;1.40;;
11346;SDS011;5728;42.722;23.258;2023-11-25T09:06:24;1.90;;;1.60;;
11346;SDS011;5728;42.722;23.258;2023-11-25T09:08:51;1.53;;;1.43;;
11346;SDS011;5728;42.722;23.258;2023-11-25T09:11:18;2.00;;;1.70;;
11346;SDS011;5728;42.722;23.258;2023-11-25T09:13:44;3.20;;;1.97;;
11346;SDS011;5728;42.722;23.258;2023-11-25T09:16:11;2.47;;;2.00;;
11346;SDS011;5728;42.722;23.258;2023-11-25T09:18:41;5.60;;;2.30;;
11346;SDS011;5728;42.722;23.258;2023-11-25T09:21:08;3.37;;;1.70;;
11346;SDS011;5728;42.722;23.258;2023-11-25T09:23:35;4.50;;;1.97;;
11346;SDS011;5728;42.722;23.258;2023-11-25T09:26:02;3.63;;;2.17;;
11346;SDS011;5728;42.722;23.258;2023-11-25T09:28:29;2.67;;;1.63;;
11346;SDS011;5728;42.722;23.258;2023-11-25T09:30:56;2.60;;;1.97;;
11346;SDS011;5728;42.722;23.258;2023-11-25T09:33:23;4.77;;;1.83;;
11346;SDS011;5728;42.722;23.258;2023-11-25T09:35:52;1.50;;;1.40;;
11346;SDS011;5728;42.722;23.258;2023-11-25T09:38:19;2.17;;;1.77;;
11346;SDS011;5728;42.722;23.258;2023-11-25T09:40:46;1.87;;;1.70;;
11346;SDS011;5728;42.722;23.258;2023-11-25T09:43:13;1.63;;;1.50;;
11346;SDS011;5728;42.722;23.258;2023-11-25T09:45:42;2.50;;;1.47;;
11346;SDS011;5728;42.722;23.258;2023-11-25T09:48:10;1.70;;;1.53;;
11346;SDS011;5728;42.722;23.258;2023-11-25T09:50:37;2.60;;;1.53;;
11346;SDS011;5728;42.722;23.258;2023-11-25T09:53:07;1.47;;;1.37;;
11346;SDS011;5728;42.722;23.258;2023-11-25T09:55:39;1.60;;;1.50;;
11346;SDS011;5728;42.722;23.258;2023-11-25T09:58:09;1.90;;;1.43;;
11346;SDS011;5728;42.722;23.258;2023-11-25T10:00:42;2.50;;;1.73;;
11346;SDS011;5728;42.722;23.258;2023-11-25T10:03:09;2.10;;;1.77;;
11346;SDS011;5728;42.722;23.258;2023-11-25T10:05:39;2.07;;;1.67;;
11346;SDS011;5728;42.722;23.258;2023-11-25T10:08:07;1.70;;;1.60;;
11346;SDS011;5728;42.722;23.258;2023-11-25T10:10:34;2.87;;;1.87;;
11346;SDS011;5728;42.722;23.258;2023-11-25T10:13:02;4.43;;;1.97;;
11346;SDS011;5728;42.722;23.258;2023-11-25T10:15:29;1.60;;;1.50;;
11346;SDS011;5728;42.722;23.258;2023-11-25T10:17:56;2.53;;;1.83;;
11346;SDS011;5728;42.722;23.258;2023-11-25T10:20:23;2.23;;;1.67;;
11346;SDS011;5728;42.722;23.258;2023-11-25T10:22:51;2.17;;;1.97;;
11346;SDS011;5728;42.722;23.258;2023-11-25T10:25:23;3.07;;;2.13;;
11346;SDS011;5728;42.722;23.258;2023-11-25T10:27:52;2.37;;;1.93;;
11346;SDS011;5728;42.722;23.258;2023-11-25T10:30:20;4.20;;;2.77;;
11346;SDS011;5728;42.722;23.258;2023-11-25T10:32:48;2.50;;;2.30;;
11346;SDS011;5728;42.722;23.258;2023-11-25T10:35:17;2.90;;;2.00;;
11346;SDS011;5728;42.722;23.258;2023-11-25T10:37:44;2.23;;;2.00;;
11346;SDS011;5728;42.722;23.258;2023-11-25T10:40:12;2.10;;;1.90;;
11346;SDS011;5728;42.722;23.258;2023-11-25T10:42:43;1.97;;;1.60;;
11346;SDS011;5728;42.722;23.258;2023-11-25T10:45:14;2.13;;;1.83;;
11346;SDS011;5728;42.722;23.258;2023-11-25T10:47:41;3.57;;;2.03;;
11346;SDS011;5728;42.722;23.258;2023-11-25T10:50:08;4.13;;;2.23;;
11346;SDS011;5728;42.722;23.258;2023-11-25T10:52:36;2.47;;;2.27;;
11346;SDS011;5728;42.722;23.258;2023-11-25T10:55:05;3.70;;;3.07;;
11346;SDS011;5728;42.722;23.258;2023-11-25T10:57:34;3.80;;;3.43;;
11346;SDS011;5728;42.722;23.258;2023-11-25T11:00:03;1.43;;;1.33;;
11346;SDS011;5728;42.722;23.258;2023-11-25T11:02:38;3.13;;;2.50;;
11346;SDS011;5728;42.722;23.258;2023-11-25T11:05:10;3.43;;;2.50;;
11346;SDS011;5728;42.722;23.258;2023-11-25T11:07:42;2.20;;;2.00;;
11346;SDS011;5728;42.722;23.258;2023-11-25T11:10:14;3.43;;;2.67;;
11346;SDS011;5728;42.722;23.258;2023-11-25T11:12:59;3.63;;;2.83;;
11346;SDS011;5728;42.722;23.258;2023-11-25T11:15:31;5.17;;;3.43;;
11346;SDS011;5728;42.722;23.258;2023-11-25T11:18:03;3.73;;;2.97;;
11346;SDS011;5728;42.722;23.258;2023-11-25T11:20:40;4.03;;;2.93;;
11346;SDS011;5728;42.722;23.258;2023-11-25T11:23:11;2.73;;;2.43;;
11346;SDS011;5728;42.722;23.258;2023-11-25T11:25:42;5.00;;;2.27;;
11346;SDS011;5728;42.722;23.258;2023-11-25T11:28:20;5.43;;;2.80;;
11346;SDS011;5728;42.722;23.258;2023-11-25T11:31:00;2.50;;;2.30;;
11346;SDS011;5728;42.722;23.258;2023-11-25T11:33:56;2.23;;;2.00;;
11346;SDS011;5728;42.722;23.258;2023-11-25T11:36:28;4.57;;;1.90;;
11346;SDS011;5728;42.722;23.258;2023-11-25T11:38:56;2.50;;;2.03;;
11346;SDS011;5728;42.722;23.258;2023-11-25T11:41:23;2.40;;;2.20;;
11346;SDS011;5728;42.722;23.258;2023-11-25T11:44:00;3.40;;;2.10;;
11346;SDS011;5728;42.722;23.258;2023-11-25T11:46:29;2.37;;;2.17;;
11346;SDS011;5728;42.722;23.258;2023-11-25T11:48:58;2.40;;;2.20;;
11346;SDS011;5728;42.722;23.258;2023-11-25T11:51:25;4.57;;;2.47;;
11346;SDS011;5728;42.722;23.258;2023-11-25T11:56:58;3.73;;;3.30;;
11346;SDS011;5728;42.722;23.258;2023-11-25T12:02:25;3.63;;;2.63;;
11346;SDS011;5728;42.722;23.258;2023-11-25T12:04:54;3.63;;;2.80;;
11346;SDS011;5728;42.722;23.258;2023-11-25T12:07:21;5.50;;;2.90;;
11346;SDS011;5728;42.722;23.258;2023-11-25T12:09:49;3.43;;;2.77;;
11346;SDS011;5728;42.722;23.258;2023-11-25T12:12:16;2.60;;;2.30;;
11346;SDS011;5728;42.722;23.258;2023-11-25T12:14:43;3.87;;;2.60;;
11346;SDS011;5728;42.722;23.258;2023-11-25T12:17:12;2.93;;;2.70;;
11346;SDS011;5728;42.722;23.258;2023-11-25T12:19:41;3.13;;;2.20;;
11346;SDS011;5728;42.722;23.258;2023-11-25T12:22:08;2.37;;;2.17;;
11346;SDS011;5728;42.722;23.258;2023-11-25T12:24:35;2.13;;;2.00;;
11346;SDS011;5728;42.722;23.258;2023-11-25T12:27:03;2.13;;;1.87;;
11346;SDS011;5728;42.722;23.258;2023-11-25T12:29:33;2.50;;;2.20;;
11346;SDS011;5728;42.722;23.258;2023-11-25T12:32:00;2.13;;;1.93;;
11346;SDS011;5728;42.722;23.258;2023-11-25T12:34:27;2.57;;;2.10;;
11346;SDS011;5728;42.722;23.258;2023-11-25T12:36:56;2.27;;;2.07;;
11346;SDS011;5728;42.722;23.258;2023-11-25T12:39:24;2.20;;;2.00;;
11346;SDS011;5728;42.722;23.258;2023-11-25T12:41:52;3.60;;;2.33;;
11346;SDS011;5728;42.722;23.258;2023-11-25T12:44:20;2.03;;;1.80;;
11346;SDS011;5728;42.722;23.258;2023-11-25T12:46:59;3.67;;;2.80;;
11346;SDS011;5728;42.722;23.258;2023-11-25T12:49:28;2.97;;;2.47;;
11346;SDS011;5728;42.722;23.258;2023-11-25T12:51:58;2.60;;;2.23;;
11346;SDS011;5728;42.722;23.258;2023-11-25T12:54:25;4.50;;;2.30;;
11346;SDS011;5728;42.722;23.258;2023-11-25T12:56:52;3.70;;;2.40;;
11346;SDS011;5728;42.722;23.258;2023-11-25T12:59:22;2.40;;;2.20;;
11346;SDS011;5728;42.722;23.258;2023-11-25T13:01:52;4.67;;;2.73;;
11346;SDS011;5728;42.722;23.258;2023-11-25T13:04:19;2.83;;;2.50;;
11346;SDS011;5728;42.722;23.258;2023-11-25T13:06:46;2.27;;;1.93;;
11346;SDS011;5728;42.722;23.258;2023-11-25T13:09:15;6.70;;;2.73;;
11346;SDS011;5728;42.722;23.258;2023-11-25T13:11:45;8.60;;;2.47;;
11346;SDS011;5728;42.722;23.258;2023-11-25T13:14:12;6.23;;;2.83;;
11346;SDS011;5728;42.722;23.258;2023-11-25T13:16:42;2.80;;;2.60;;
11346;SDS011;5728;42.722;23.258;2023-11-25T13:19:09;5.20;;;3.20;;
11346;SDS011;5728;42.722;23.258;2023-11-25T13:21:36;3.03;;;2.70;;
11346;SDS011;5728;42.722;23.258;2023-11-25T13:24:03;3.20;;;2.47;;
11346;SDS011;5728;42.722;23.258;2023-11-25T13:26:32;3.70;;;2.70;;
11346;SDS011;5728;42.722;23.258;2023-11-25T13:28:59;4.27;;;3.17;;
11346;SDS011;5728;42.722;23.258;2023-11-25T13:31:26;3.53;;;2.60;;
11346;SDS011;5728;42.722;23.258;2023-11-25T13:33:54;3.50;;;3.20;;
11346;SDS011;5728;42.722;23.258;2023-11-25T13:36:21;5.10;;;3.97;;
11346;SDS011;5728;42.722;23.258;2023-11-25T13:38:48;6.77;;;3.53;;
11346;SDS011;5728;42.722;23.258;2023-11-25T13:41:15;5.87;;;3.57;;
11346;SDS011;5728;42.722;23.258;2023-11-25T13:43:43;4.27;;;3.87;;
11346;SDS011;5728;42.722;23.258;2023-11-25T13:46:11;6.57;;;4.77;;
11346;SDS011;5728;42.722;23.258;2023-11-25T13:48:38;5.90;;;4.90;;
11346;SDS011;5728;42.722;23.258;2023-11-25T13:51:05;7.03;;;4.90;;
11346;SDS011;5728;42.722;23.258;2023-11-25T13:53:34;8.40;;;5.30;;
11346;SDS011;5728;42.722;23.258;2023-11-25T13:56:01;7.40;;;5.60;;
11346;SDS011;5728;42.722;23.258;2023-11-25T13:58:28;7.70;;;5.73;;
11346;SDS011;5728;42.722;23.258;2023-11-25T14:00:57;11.47;;;6.07;;
11346;SDS011;5728;42.722;23.258;2023-11-25T14:03:24;12.77;;;5.97;;
11346;SDS011;5728;42.722;23.258;2023-11-25T14:05:50;9.93;;;6.70;;
11346;SDS011;5728;42.722;23.258;2023-11-25T14:08:18;12.40;;;8.20;;
11346;SDS011;5728;42.722;23.258;2023-11-25T14:10:52;12.47;;;7.87;;
11346;SDS011;5728;42.722;23.258;2023-11-25T14:13:20;10.57;;;8.07;;
11346;SDS011;5728;42.722;23.258;2023-11-25T14:15:47;11.37;;;7.80;;
11346;SDS011;5728;42.722;23.258;2023-11-25T14:18:15;11.03;;;6.93;;
11346;SDS011;5728;42.722;23.258;2023-11-25T14:20:42;14.40;;;7.87;;
11346;SDS011;5728;42.722;23.258;2023-11-25T14:23:09;11.27;;;8.07;;
11346;SDS011;5728;42.722;23.258;2023-11-25T14:25:35;12.77;;;8.23;;
11346;SDS011;5728;42.722;23.258;2023-11-25T14:28:02;16.70;;;9.00;;
11346;SDS011;5728;42.722;23.258;2023-11-25T14:30:29;12.20;;;8.70;;
11346;SDS011;5728;42.722;23.258;2023-11-25T14:32:58;16.93;;;8.83;;
11346;SDS011;5728;42.722;23.258;2023-11-25T14:35:26;10.37;;;7.77;;
11346;SDS011;5728;42.722;23.258;2023-11-25T14:37:53;11.53;;;8.87;;
11346;SDS011;5728;42.722;23.258;2023-11-25T14:40:22;11.10;;;7.13;;
11346;SDS011;5728;42.722;23.258;2023-11-25T14:42:49;12.17;;;7.10;;
11346;SDS011;5728;42.722;23.258;2023-11-25T14:45:16;11.60;;;6.93;;
11346;SDS011;5728;42.722;23.258;2023-11-25T14:47:43;9.70;;;6.53;;
11346;SDS011;5728;42.722;23.258;2023-11-25T14:50:10;8.70;;;6.40;;
11346;SDS011;5728;42.722;23.258;2023-11-25T14:52:39;8.17;;;4.73;;
11346;SDS011;5728;42.722;23.258;2023-11-25T14:55:06;8.40;;;5.87;;
11346;SDS011;5728;42.722;23.258;2023-11-25T14:57:34;10.30;;;6.90;;
11346;SDS011;5728;42.722;23.258;2023-11-25T15:00:01;9.37;;;5.93;;